Time;durP1;ratioP1;P1;durP2;ratioP2;P2;SDS_P1;SDS_P2;PMS_P1;PMS_P2;Temp;Humidity;BMP_temperature;BMP_pressure;BME280_temperature;BME280_humidity;BME280_pressure;Samples;Min_cycle;Max_cycle;Signal;HPM_P1;HPM_P2
2024/04/24 00:00:59;;;;;;;3.17;1.15;;;15.10;73.70;;;;;;4220338;27;20058;-39
2024/04/24 00:03:41;;;;;;;3.70;1.02;;;15.10;73.70;;;;;;4220287;27;20090;-39
2024/04/24 00:06:24;;;;;;;2.95;1.00;;;15.10;73.80;;;;;;4217143;27;20020;-38
2024/04/24 00:09:10;;;;;;;2.75;0.93;;;15.00;73.50;;;;;;4220026;27;20021;-39
2024/04/24 00:11:53;;;;;;;4.05;0.90;;;15.00;73.60;;;;;;4219746;27;20021;-38
2024/04/24 00:14:36;;;;;;;3.95;0.90;;;15.00;73.40;;;;;;4219555;27;20054;-38
2024/04/24 00:17:19;;;;;;;3.53;0.90;;;15.00;73.20;;;;;;4219121;27;20016;-38
2024/04/24 00:20:02;;;;;;;4.20;0.70;;;15.00;73.10;;;;;;4220315;27;20020;-38
2024/04/24 00:22:45;;;;;;;4.57;1.25;;;15.00;73.20;;;;;;4217383;27;20016;-39
2024/04/24 00:25:30;;;;;;;4.22;1.02;;;15.00;73.40;;;;;;4219629;27;20422;-38
2024/04/24 00:28:13;;;;;;;2.60;1.00;;;15.00;73.70;;;;;;4219361;27;20482;-38
2024/04/24 00:30:59;;;;;;;2.17;0.95;;;14.90;73.80;;;;;;4220178;27;20017;-38
2024/04/24 00:33:42;;;;;;;3.22;1.00;;;14.90;73.90;;;;;;4220262;27;20451;-38
2024/04/24 00:36:26;;;;;;;4.78;0.90;;;14.90;74.90;;;;;;4219533;27;20020;-38
2024/04/24 00:39:09;;;;;;;2.42;0.80;;;14.90;73.80;;;;;;4223014;27;20021;-39
2024/04/24 00:41:56;;;;;;;7.80;1.30;;;14.90;73.90;;;;;;4222551;27;20020;-39
2024/04/24 00:44:39;;;;;;;4.13;1.20;;;14.90;74.00;;;;;;4222362;27;20086;-39
2024/04/24 00:47:24;;;;;;;1.65;0.70;;;14.90;74.30;;;;;;4196255;27;20021;-39
2024/04/24 00:50:12;;;;;;;4.38;0.90;;;14.90;74.30;;;;;;4205675;27;20101;-39
2024/04/24 00:52:55;;;;;;;4.18;1.00;;;14.90;74.40;;;;;;4221722;27;20053;-49
2024/04/24 00:55:39;;;;;;;3.90;1.05;;;14.90;74.80;;;;;;4222147;27;20020;-49
2024/04/24 00:58:25;;;;;;;3.53;1.00;;;14.90;75.20;;;;;;4222397;27;20020;-48
2024/04/24 01:01:08;;;;;;;4.93;1.25;;;15.00;74.90;;;;;;4220531;27;20144;-49
2024/04/24 01:03:51;;;;;;;2.65;1.40;;;15.00;74.90;;;;;;4221776;27;20016;-48
2024/04/24 01:06:34;;;;;;;3.63;1.50;;;14.90;74.70;;;;;;4221882;27;20016;-51
2024/04/24 01:09:17;;;;;;;6.78;1.08;;;14.90;74.50;;;;;;4221873;27;20020;-49
2024/04/24 01:11:59;;;;;;;4.38;1.13;;;14.90;74.70;;;;;;4221565;27;20085;-48
2024/04/24 01:14:45;;;;;;;3.47;1.27;;;14.90;74.60;;;;;;4221773;27;20089;-49
2024/04/24 01:17:28;;;;;;;4.03;1.00;;;14.80;74.50;;;;;;4220861;27;20023;-47
2024/04/24 01:20:17;;;;;;;7.03;1.40;;;14.80;74.80;;;;;;4220595;27;20021;-47
2024/04/24 01:23:19;;;;;;;3.13;1.05;;;14.90;75.80;;;;;;4236716;27;20017;-38
2024/04/24 01:26:06;;;;;;;2.90;1.20;;;14.90;75.90;;;;;;4221545;27;20086;-38
2024/04/24 01:28:52;;;;;;;3.17;1.35;;;15.10;76.00;;;;;;4221990;27;20020;-39
2024/04/24 01:31:35;;;;;;;4.97;1.02;;;15.10;75.50;;;;;;4221831;27;20020;-39
2024/04/24 01:34:18;;;;;;;4.00;1.10;;;15.20;75.60;;;;;;4218519;27;20022;-39
2024/04/24 01:37:01;;;;;;;3.47;1.48;;;15.20;75.50;;;;;;4212794;27;20024;-39
2024/04/24 01:39:44;;;;;;;4.80;1.35;;;15.30;75.40;;;;;;4203650;27;20145;-38
2024/04/24 01:42:27;;;;;;;5.28;1.02;;;15.30;76.40;;;;;;4220952;27;20024;-39
2024/04/24 01:45:12;;;;;;;3.45;1.00;;;15.30;75.50;;;;;;4221785;27;20085;-48
2024/04/24 01:47:55;;;;;;;2.80;1.25;;;15.30;75.20;;;;;;4221679;27;20089;-50
2024/04/24 01:50:38;;;;;;;2.17;0.90;;;15.40;75.30;;;;;;4212494;27;20035;-48
2024/04/24 01:53:21;;;;;;;5.03;1.35;;;15.40;75.10;;;;;;4212393;27;20021;-48
2024/04/24 01:56:04;;;;;;;7.38;1.10;;;15.50;74.90;;;;;;4195479;27;20021;-39
2024/04/24 01:58:47;;;;;;;2.80;1.10;;;15.50;74.60;;;;;;4195501;27;20363;-48
2024/04/24 02:01:32;;;;;;;3.33;1.10;;;15.60;74.30;;;;;;4195757;27;20028;-47
2024/04/24 02:04:15;;;;;;;4.20;1.20;;;15.60;73.80;;;;;;4198981;27;20612;-48
2024/04/24 02:06:58;;;;;;;4.45;1.20;;;15.60;73.70;;;;;;4221606;27;20090;-48
2024/04/24 02:09:40;;;;;;;6.57;1.60;;;15.70;73.60;;;;;;4221332;27;20451;-47
2024/04/24 02:12:23;;;;;;;5.07;1.30;;;15.60;73.60;;;;;;4221847;27;20025;-48
2024/04/24 02:15:07;;;;;;;4.13;1.05;;;15.60;73.50;;;;;;4237622;27;20021;-49
2024/04/24 02:17:52;;;;;;;9.40;1.42;;;15.70;73.70;;;;;;4220760;27;20056;-48
2024/04/24 02:20:35;;;;;;;5.38;1.13;;;15.70;73.70;;;;;;4221326;27;20021;-48
2024/04/24 02:23:20;;;;;;;6.75;1.23;;;15.70;73.60;;;;;;4220058;27;20020;-48
2024/04/24 02:26:04;;;;;;;2.92;0.88;;;15.70;73.60;;;;;;4221291;27;20028;-48
2024/04/24 02:28:47;;;;;;;4.97;1.27;;;15.70;73.40;;;;;;4221623;27;20020;-49
2024/04/24 02:31:30;;;;;;;2.60;0.95;;;15.70;73.40;;;;;;4221133;27;20056;-49
2024/04/24 02:34:16;;;;;;;6.63;1.33;;;15.80;73.40;;;;;;4221242;27;20017;-49
2024/04/24 02:36:59;;;;;;;4.55;1.17;;;15.80;73.50;;;;;;4221359;27;20086;-49
2024/04/24 02:39:41;;;;;;;2.85;1.00;;;15.70;73.50;;;;;;4244294;27;20350;-48
2024/04/24 02:42:24;;;;;;;2.95;1.30;;;15.80;73.40;;;;;;4220515;27;20021;-47
2024/04/24 02:45:08;;;;;;;4.70;1.30;;;15.80;73.20;;;;;;4219114;27;20016;-48
2024/04/24 02:47:51;;;;;;;2.70;0.98;;;15.80;72.80;;;;;;4219260;27;20065;-48
2024/04/24 02:50:37;;;;;;;2.90;0.80;;;15.80;72.70;;;;;;4220245;27;20025;-48
2024/04/24 02:53:20;;;;;;;7.53;1.52;;;15.80;73.00;;;;;;4219828;27;20472;-48
2024/04/24 02:56:03;;;;;;;5.10;1.20;;;15.80;73.00;;;;;;4207080;27;20018;-47
2024/04/24 02:58:48;;;;;;;6.75;1.42;;;15.90;73.00;;;;;;4194935;27;20054;-48
2024/04/24 03:01:31;;;;;;;7.22;1.70;;;15.90;73.30;;;;;;4194304;27;20021;-48
2024/04/24 03:04:14;;;;;;;4.72;1.00;;;15.90;73.00;;;;;;4207363;27;20033;-48
2024/04/24 03:06:59;;;;;;;4.68;1.35;;;15.80;73.00;;;;;;4220798;27;20442;-48
2024/04/24 03:09:42;;;;;;;3.83;1.00;;;15.80;73.10;;;;;;4221103;27;20037;-49
2024/04/24 03:12:25;;;;;;;4.97;1.15;;;15.80;72.90;;;;;;4206519;27;20025;-48
2024/04/24 03:15:09;;;;;;;5.47;1.33;;;15.70;73.20;;;;;;4192569;27;20094;-48
2024/04/24 03:17:52;;;;;;;6.68;1.45;;;15.80;73.10;;;;;;4192386;27;20057;-48
2024/04/24 03:20:35;;;;;;;4.82;1.38;;;15.70;72.60;;;;;;4206197;27;20016;-51
2024/04/24 03:23:20;;;;;;;3.22;0.80;;;15.80;72.60;;;;;;4218448;27;20090;-50
2024/04/24 03:26:08;;;;;;;4.28;0.73;;;15.80;72.30;;;;;;4218573;27;20425;-52
2024/04/24 03:28:51;;;;;;;2.30;0.50;;;15.80;72.70;;;;;;4218408;27;20020;-49
2024/04/24 03:31:35;;;;;;;0.52;0.45;;;15.70;72.80;;;;;;4211060;27;20024;-52
2024/04/24 03:34:18;;;;;;;2.13;0.70;;;15.70;73.30;;;;;;4193118;27;20467;-47
2024/04/24 03:37:01;;;;;;;1.20;0.60;;;15.80;73.20;;;;;;4194069;27;20083;-47
2024/04/24 03:39:46;;;;;;;1.45;0.50;;;15.80;73.00;;;;;;4194906;27;20047;-50
2024/04/24 03:42:29;;;;;;;3.20;0.57;;;15.80;73.70;;;;;;4194426;27;20090;-49
2024/04/24 03:45:13;;;;;;;1.77;0.45;;;15.80;72.90;;;;;;4216957;27;20138;-49
2024/04/24 03:47:56;;;;;;;2.47;0.77;;;15.80;72.80;;;;;;4220463;27;20068;-49
2024/04/24 03:50:39;;;;;;;2.58;0.50;;;15.80;72.60;;;;;;4220357;27;20016;-48
2024/04/24 03:53:21;;;;;;;1.13;0.52;;;15.90;72.40;;;;;;4220062;27;20034;-50
2024/04/24 03:56:08;;;;;;;2.30;0.60;;;15.90;72.60;;;;;;4220308;27;20024;-48
2024/04/24 03:58:51;;;;;;;2.78;0.73;;;15.90;71.90;;;;;;4217110;27;20021;-49
2024/04/24 04:01:34;;;;;;;1.85;0.82;;;15.90;72.90;;;;;;4214918;27;20037;-49
2024/04/24 04:04:17;;;;;;;1.25;0.60;;;15.80;72.20;;;;;;4220290;27;20016;-47
2024/04/24 04:07:00;;;;;;;1.75;0.70;;;15.90;71.80;;;;;;4220378;27;20024;-47
2024/04/24 04:09:43;;;;;;;2.38;0.50;;;15.90;71.80;;;;;;4220008;27;20340;-48
2024/04/24 04:12:29;;;;;;;1.73;0.68;;;15.90;71.60;;;;;;4220899;27;20594;-48
2024/04/24 04:15:13;;;;;;;1.40;0.63;;;15.90;71.30;;;;;;4200112;27;20086;-49
2024/04/24 04:17:56;;;;;;;3.08;0.73;;;16.00;70.70;;;;;;4222681;27;20020;-47
2024/04/24 04:20:39;;;;;;;2.65;0.57;;;16.00;71.10;;;;;;4222496;27;20063;-47
2024/04/24 04:23:22;;;;;;;1.00;0.68;;;16.00;69.90;;;;;;4222263;27;20105;-48
2024/04/24 04:26:05;;;;;;;2.13;0.68;;;16.00;69.90;;;;;;4222792;27;20046;-47
2024/04/24 04:28:50;;;;;;;0.50;0.50;;;16.00;69.90;;;;;;4221890;27;20453;-50
2024/04/24 04:31:33;;;;;;;2.75;0.60;;;16.00;70.00;;;;;;4218961;27;20021;-48
2024/04/24 04:34:16;;;;;;;1.08;0.88;;;15.90;70.10;;;;;;4222267;27;20082;-51
2024/04/24 04:36:58;;;;;;;1.35;0.50;;;15.90;70.10;;;;;;4222926;27;20099;-39
2024/04/24 04:39:41;;;;;;;1.13;0.63;;;15.80;70.00;;;;;;4222050;27;20025;-52
2024/04/24 04:42:24;;;;;;;1.02;0.60;;;15.80;70.30;;;;;;4196664;27;20339;-48
2024/04/24 04:45:10;;;;;;;1.75;0.75;;;15.80;70.50;;;;;;4222415;27;20094;-49
2024/04/24 04:47:53;;;;;;;3.42;0.90;;;15.80;70.60;;;;;;4219820;27;20028;-49
2024/04/24 04:50:35;;;;;;;3.30;0.52;;;15.90;71.20;;;;;;4221948;27;20059;-48
2024/04/24 04:53:18;;;;;;;2.47;1.08;;;15.90;70.10;;;;;;4195730;27;20057;-49
2024/04/24 04:56:01;;;;;;;3.10;0.70;;;15.90;70.00;;;;;;4196300;27;20025;-47
2024/04/24 04:58:44;;;;;;;1.27;0.68;;;15.90;70.00;;;;;;4213511;27;20040;-47
2024/04/24 05:01:30;;;;;;;2.85;0.68;;;15.90;70.00;;;;;;4222610;27;20024;-50
2024/04/24 05:04:12;;;;;;;0.73;0.70;;;16.00;69.90;;;;;;4220074;27;20016;-48
2024/04/24 05:06:55;;;;;;;0.68;0.55;;;16.00;70.00;;;;;;4239509;27;20021;-49
2024/04/24 05:09:38;;;;;;;0.50;0.47;;;16.00;69.90;;;;;;4218525;27;20020;-48
2024/04/24 05:12:20;;;;;;;2.83;0.70;;;16.10;70.00;;;;;;4213216;27;20086;-39
2024/04/24 05:15:03;;;;;;;2.53;0.52;;;16.10;70.00;;;;;;4222410;27;20086;-39
2024/04/24 05:17:48;;;;;;;2.95;1.08;;;16.10;69.80;;;;;;4220046;27;20024;-39
2024/04/24 05:20:31;;;;;;;1.10;0.60;;;16.20;70.90;;;;;;4221430;27;20025;-39
2024/04/24 05:23:12;;;;;;;2.97;1.05;;;16.20;70.30;;;;;;4221779;27;20024;-39
2024/04/24 05:25:55;;;;;;;2.17;0.75;;;16.20;70.30;;;;;;4221528;27;20024;-39
2024/04/24 05:31:38;;;;;;;2.10;0.88;;;16.30;70.10;;;;;;4219826;27;20038;-39
2024/04/24 05:34:23;;;;;;;1.17;0.93;;;16.40;69.90;;;;;;4196048;27;20026;-38
2024/04/24 05:37:06;;;;;;;1.40;0.90;;;16.40;69.60;;;;;;4220616;27;20021;-39
2024/04/24 05:39:53;;;;;;;1.95;0.60;;;16.50;69.30;;;;;;4220744;27;20020;-39
2024/04/24 05:42:36;;;;;;;3.00;0.70;;;16.40;68.80;;;;;;4221018;27;20139;-39
2024/04/24 05:45:19;;;;;;;1.50;0.70;;;16.40;68.70;;;;;;4197213;27;20108;-39
2024/04/24 05:48:04;;;;;;;1.45;0.90;;;16.40;68.90;;;;;;4195373;27;20021;-39
2024/04/24 05:50:49;;;;;;;2.00;0.98;;;16.30;68.80;;;;;;4195271;27;20017;-39
2024/04/24 05:53:32;;;;;;;1.58;0.57;;;16.30;68.70;;;;;;4195628;27;20022;-39
2024/04/24 05:56:15;;;;;;;0.73;0.50;;;16.20;69.90;;;;;;4215574;27;20020;-39
2024/04/24 05:58:58;;;;;;;1.48;0.98;;;16.20;69.10;;;;;;4221881;27;20061;-39
2024/04/24 06:01:41;;;;;;;1.55;0.90;;;16.10;69.10;;;;;;4219590;27;20020;-38
2024/04/24 06:04:23;;;;;;;1.10;0.60;;;16.20;69.30;;;;;;4219564;27;20016;-38
2024/04/24 06:07:08;;;;;;;1.42;0.70;;;16.10;69.40;;;;;;4238082;27;20094;-38
2024/04/24 06:09:51;;;;;;;1.75;0.70;;;16.30;69.50;;;;;;4195461;27;20047;-38
2024/04/24 06:12:34;;;;;;;2.83;0.47;;;16.30;69.10;;;;;;4212149;27;20020;-38
2024/04/24 06:15:17;;;;;;;1.98;0.50;;;16.30;68.80;;;;;;4213367;27;20090;-38
2024/04/24 06:18:00;;;;;;;1.02;0.50;;;16.40;68.60;;;;;;4195623;27;20025;-39
2024/04/24 06:20:42;;;;;;;2.25;0.88;;;16.40;68.40;;;;;;4195496;27;20103;-39
2024/04/24 06:23:28;;;;;;;0.85;0.52;;;16.30;69.30;;;;;;4225097;27;20019;-38
2024/04/24 06:26:11;;;;;;;4.10;0.70;;;16.30;68.60;;;;;;4212315;27;20021;-38
2024/04/24 06:28:54;;;;;;;2.10;0.70;;;16.20;69.30;;;;;;4195173;27;20034;-47
2024/04/24 06:31:40;;;;;;;1.90;0.68;;;16.20;70.60;;;;;;4195479;27;20083;-48
2024/04/24 06:34:23;;;;;;;2.38;0.90;;;16.30;69.70;;;;;;4194743;27;20020;-47
2024/04/24 06:37:06;;;;;;;1.83;0.80;;;16.30;69.50;;;;;;4206227;27;20028;-48
2024/04/24 06:39:51;;;;;;;2.13;0.47;;;16.30;69.00;;;;;;4220088;27;20027;-47
2024/04/24 06:42:34;;;;;;;1.80;0.77;;;16.20;68.10;;;;;;4214568;27;20022;-48
2024/04/24 06:45:17;;;;;;;1.17;0.70;;;16.30;67.20;;;;;;4193506;27;20024;-47
2024/04/24 06:48:00;;;;;;;2.17;0.50;;;16.20;67.20;;;;;;4206829;27;20020;-48
2024/04/24 06:50:43;;;;;;;0.95;0.40;;;16.20;68.70;;;;;;4238512;27;20407;-48
2024/04/24 06:53:26;;;;;;;3.05;0.60;;;16.20;68.00;;;;;;4221302;27;20089;-48
2024/04/24 06:56:11;;;;;;;0.63;0.50;;;16.20;68.20;;;;;;4195125;27;20416;-49
2024/04/24 06:58:54;;;;;;;2.13;0.60;;;16.20;68.50;;;;;;4235719;27;20064;-48
2024/04/24 07:01:37;;;;;;;2.10;0.63;;;16.20;68.50;;;;;;4220791;27;20025;-39
2024/04/24 07:04:20;;;;;;;4.07;0.70;;;16.20;68.20;;;;;;4220654;27;20108;-39
2024/04/24 07:07:03;;;;;;;0.77;0.47;;;16.20;68.40;;;;;;4237911;27;20086;-38
2024/04/24 07:09:46;;;;;;;2.22;0.50;;;16.20;67.80;;;;;;4220117;27;20050;-38
2024/04/24 07:12:32;;;;;;;2.88;0.60;;;16.20;67.90;;;;;;4220921;27;20095;-39
2024/04/24 07:15:15;;;;;;;4.47;0.60;;;16.20;68.10;;;;;;4237259;27;20090;-39
2024/04/24 07:17:58;;;;;;;3.00;0.50;;;16.10;68.30;;;;;;4220694;27;20083;-38
2024/04/24 07:20:41;;;;;;;3.90;0.52;;;16.10;68.70;;;;;;4220481;27;20024;-38
2024/04/24 07:23:23;;;;;;;3.47;0.50;;;16.00;68.90;;;;;;4221007;27;20086;-38
2024/04/24 07:26:06;;;;;;;1.02;0.57;;;16.00;69.20;;;;;;4194772;27;20416;-38
2024/04/24 07:28:51;;;;;;;2.03;0.75;;;15.90;69.10;;;;;;4194751;27;20025;-38
2024/04/24 07:31:35;;;;;;;3.13;0.60;;;15.90;69.20;;;;;;4197066;27;20021;-38
2024/04/24 07:34:17;;;;;;;2.63;0.82;;;15.90;69.70;;;;;;4219948;27;20017;-39
2024/04/24 07:37:00;;;;;;;2.28;0.93;;;16.00;69.70;;;;;;4220983;27;20021;-39
2024/04/24 07:39:42;;;;;;;1.63;0.70;;;16.00;69.50;;;;;;4220741;27;20016;-38
2024/04/24 07:42:25;;;;;;;1.45;0.45;;;16.10;69.40;;;;;;4220787;27;20017;-38
2024/04/24 07:45:11;;;;;;;1.60;0.85;;;16.10;69.00;;;;;;4220780;27;20510;-50
2024/04/24 07:47:53;;;;;;;1.88;0.57;;;16.20;68.80;;;;;;4219283;27;20017;-51
2024/04/24 07:50:36;;;;;;;2.78;0.60;;;16.10;68.90;;;;;;4219506;27;20086;-48
2024/04/24 07:53:19;;;;;;;1.95;1.10;;;16.10;68.90;;;;;;4220325;27;20020;-49
2024/04/24 07:56:02;;;;;;;1.50;0.50;;;16.00;68.40;;;;;;4219109;27;20625;-38
2024/04/24 07:58:45;;;;;;;4.40;0.68;;;16.00;68.50;;;;;;4206830;27;20021;-38
2024/04/24 08:01:30;;;;;;;2.17;0.60;;;16.00;68.80;;;;;;4194417;27;20022;-37
2024/04/24 08:04:14;;;;;;;2.75;0.80;;;15.90;68.20;;;;;;4196537;27;20064;-37
2024/04/24 08:06:57;;;;;;;4.00;0.82;;;15.80;67.70;;;;;;4194010;27;20021;-38
2024/04/24 08:09:40;;;;;;;3.17;0.90;;;15.80;67.60;;;;;;4194218;27;20016;-37
2024/04/24 08:12:23;;;;;;;2.85;0.80;;;15.70;67.80;;;;;;4194536;27;20025;-38
2024/04/24 08:15:07;;;;;;;6.60;0.80;;;15.70;67.50;;;;;;4221801;27;20027;-37
2024/04/24 08:17:52;;;;;;;2.78;0.70;;;15.60;69.20;;;;;;4219531;27;20021;-37
2024/04/24 08:20:35;;;;;;;4.07;1.40;;;15.60;69.50;;;;;;4197512;27;20021;-37
2024/04/24 08:23:17;;;;;;;6.32;2.88;;;15.50;69.00;;;;;;4219707;27;20021;-37
2024/04/24 08:26:07;;;;;;;60.40;18.25;;;15.50;69.80;;;;;;4220488;27;20028;-37
2024/04/24 08:28:50;;;;;;;2.63;1.75;;;15.50;70.30;;;;;;4193970;27;20024;-37
2024/04/24 08:31:33;;;;;;;7.72;1.45;;;15.50;70.40;;;;;;4194020;27;20024;-37
2024/04/24 08:34:18;;;;;;;4.55;1.67;;;15.40;69.40;;;;;;4197455;27;20025;-37
2024/04/24 08:37:01;;;;;;;3.55;0.93;;;15.40;68.20;;;;;;4219855;27;20085;-37
2024/04/24 08:39:44;;;;;;;1.75;1.02;;;15.30;69.20;;;;;;4219594;27;20361;-37
2024/04/24 08:42:27;;;;;;;3.83;0.90;;;15.30;67.50;;;;;;4219212;27;20342;-38
2024/04/24 08:45:11;;;;;;;4.47;1.30;;;15.30;67.00;;;;;;4220050;27;20404;-37
2024/04/24 08:47:55;;;;;;;3.40;0.82;;;15.30;65.60;;;;;;4193749;27;20021;-37
2024/04/24 08:50:41;;;;;;;2.80;1.00;;;15.20;65.50;;;;;;4193582;27;20022;-37
2024/04/24 08:53:29;;;;;;;2.08;0.60;;;15.20;65.80;;;;;;4193254;27;20087;-37
2024/04/24 08:56:14;;;;;;;2.15;0.70;;;15.10;65.50;;;;;;4193881;27;20046;-36
2024/04/24 08:59:02;;;;;;;1.10;0.40;;;15.10;67.00;;;;;;4195187;27;20021;-37
2024/04/24 09:01:51;;;;;;;1.15;0.65;;;15.10;66.80;;;;;;4222343;27;20059;-37
2024/04/24 09:04:34;;;;;;;3.45;0.90;;;15.00;66.30;;;;;;4220830;27;20141;-37
2024/04/24 09:07:21;;;;;;;1.42;0.60;;;15.00;66.30;;;;;;4221679;27;20021;-37
2024/04/24 09:10:04;;;;;;;3.35;0.70;;;15.00;65.90;;;;;;4195960;27;20026;-38
2024/04/24 09:12:47;;;;;;;0.60;0.57;;;14.90;66.40;;;;;;4194644;27;20022;-37
2024/04/24 09:15:31;;;;;;;1.85;0.70;;;15.00;66.80;;;;;;4198917;27;20024;-37
2024/04/24 09:18:14;;;;;;;1.73;0.50;;;14.90;67.20;;;;;;4194590;27;20064;-37
2024/04/24 09:20:58;;;;;;;0.38;0.38;;;14.90;67.40;;;;;;4196188;27;20094;-37
2024/04/24 09:23:43;;;;;;;0.50;0.50;;;14.90;66.90;;;;;;4195666;27;20033;-37
2024/04/24 09:26:26;;;;;;;0.55;0.55;;;14.90;66.50;;;;;;4212937;27;20086;-37
2024/04/24 09:29:11;;;;;;;0.60;0.60;;;14.90;66.70;;;;;;4222381;27;20024;-37
2024/04/24 09:31:54;;;;;;;1.40;0.60;;;14.80;67.70;;;;;;4215914;27;20118;-37
2024/04/24 09:34:37;;;;;;;2.25;0.90;;;14.90;68.60;;;;;;4196053;27;20487;-37
2024/04/24 09:37:20;;;;;;;3.65;1.30;;;14.90;68.80;;;;;;4196328;27;20099;-37
2024/04/24 09:40:10;;;;;;;3.90;2.63;;;14.90;68.30;;;;;;4197610;27;20374;-37
2024/04/24 09:42:53;;;;;;;3.25;1.95;;;14.90;69.30;;;;;;4221832;27;20025;-37
2024/04/24 09:45:36;;;;;;;2.92;2.55;;;15.00;69.80;;;;;;4212265;27;20021;-37
2024/04/24 09:48:19;;;;;;;5.60;2.70;;;15.00;69.70;;;;;;4195612;27;20021;-36
2024/04/24 09:51:04;;;;;;;6.15;2.25;;;15.00;70.10;;;;;;4195739;27;20091;-37
2024/04/24 09:53:48;;;;;;;2.63;0.80;;;15.00;69.80;;;;;;4208317;27;20030;-36
2024/04/24 09:56:40;;;;;;;1.48;0.77;;;15.00;69.50;;;;;;4235477;27;20021;-37
2024/04/24 09:59:26;;;;;;;1.52;1.40;;;15.00;69.00;;;;;;4194646;27;20029;-37
2024/04/24 10:02:12;;;;;;;1.90;0.70;;;15.10;68.80;;;;;;4194384;27;20412;-37
2024/04/24 10:05:03;;;;;;;1.02;0.77;;;15.10;68.50;;;;;;4198451;27;20024;-46
2024/04/24 10:07:48;;;;;;;2.28;1.00;;;15.10;68.80;;;;;;4220948;27;20090;-50
2024/04/24 10:10:37;;;;;;;0.50;0.50;;;15.10;68.70;;;;;;4236760;27;20053;-47
2024/04/24 10:13:26;;;;;;;3.08;1.17;;;15.20;68.80;;;;;;4205899;27;20090;-47
2024/04/24 10:16:10;;;;;;;1.23;0.95;;;15.20;68.70;;;;;;4221414;27;20089;-47
2024/04/24 10:18:55;;;;;;;2.20;1.20;;;15.20;68.00;;;;;;4218816;27;20485;-37
2024/04/24 10:21:39;;;;;;;1.48;0.77;;;15.20;67.30;;;;;;4195110;27;20087;-37
2024/04/24 10:24:22;;;;;;;3.15;0.80;;;15.20;65.50;;;;;;4195562;27;20091;-36
2024/04/24 10:27:06;;;;;;;1.02;0.45;;;15.20;65.50;;;;;;4205834;27;20081;-46
2024/04/24 10:29:53;;;;;;;1.88;0.63;;;15.30;66.10;;;;;;4221079;27;20097;-47
2024/04/24 10:32:36;;;;;;;2.55;0.60;;;15.30;67.10;;;;;;4221521;27;20020;-46
2024/04/24 10:35:21;;;;;;;1.58;0.52;;;15.30;68.10;;;;;;4220485;27;20016;-48
2024/04/24 10:38:07;;;;;;;1.08;0.70;;;15.30;68.00;;;;;;4194081;27;20095;-49
2024/04/24 10:40:51;;;;;;;3.60;0.90;;;15.30;67.20;;;;;;4195161;27;20021;-47
2024/04/24 10:43:36;;;;;;;1.40;0.60;;;15.30;68.40;;;;;;4198698;27;20528;-47
2024/04/24 10:46:23;;;;;;;1.40;0.55;;;15.30;68.30;;;;;;4195229;27;20083;-46
2024/04/24 10:49:09;;;;;;;3.88;0.75;;;15.30;68.40;;;;;;4194381;27;20021;-48
2024/04/24 10:51:52;;;;;;;2.70;0.88;;;15.30;68.40;;;;;;4194470;27;20339;-47
2024/04/24 10:54:35;;;;;;;1.67;0.90;;;15.30;66.90;;;;;;4203345;27;20028;-50
2024/04/24 10:57:18;;;;;;;3.92;0.80;;;15.30;65.00;;;;;;4194606;27;20090;-48
2024/04/24 11:00:14;;;;;;;2.67;0.90;;;15.30;65.90;;;;;;4220307;27;20050;-47
2024/04/24 11:03:00;;;;;;;3.20;0.63;;;15.30;65.80;;;;;;4222166;27;20020;-46
2024/04/24 11:05:44;;;;;;;5.45;1.02;;;15.30;65.30;;;;;;4195079;27;20095;-48
2024/04/24 11:08:28;;;;;;;3.95;1.30;;;15.30;64.60;;;;;;4247350;27;20436;-47
2024/04/24 11:11:11;;;;;;;2.22;1.10;;;15.30;64.80;;;;;;4208705;27;20090;-48
2024/04/24 11:14:01;;;;;;;1.92;0.60;;;15.30;63.30;;;;;;4218462;27;20050;-48
2024/04/24 11:16:56;;;;;;;1.15;0.70;;;15.40;62.10;;;;;;4221315;27;20090;-38
2024/04/24 11:19:41;;;;;;;3.95;0.80;;;15.50;62.20;;;;;;4199512;27;20024;-37
2024/04/24 11:22:28;;;;;;;2.13;0.90;;;15.40;61.80;;;;;;4194816;27;20469;-38
2024/04/24 11:25:12;;;;;;;3.47;1.20;;;15.50;62.70;;;;;;4217583;27;20090;-38
2024/04/24 11:27:55;;;;;;;3.67;1.45;;;15.50;62.50;;;;;;4194767;27;20043;-38
2024/04/24 11:30:38;;;;;;;2.25;0.70;;;15.60;62.10;;;;;;4202760;27;20020;-38
2024/04/24 11:33:24;;;;;;;4.47;0.90;;;15.60;62.40;;;;;;4219357;27;20016;-38
2024/04/24 11:36:10;;;;;;;1.05;0.75;;;15.70;61.00;;;;;;4220733;27;20020;-38
2024/04/24 11:38:53;;;;;;;5.53;0.85;;;15.70;59.70;;;;;;4220883;27;20085;-38
2024/04/24 11:41:37;;;;;;;2.30;0.77;;;15.70;58.70;;;;;;4249642;27;20091;-38
2024/04/24 11:44:20;;;;;;;2.88;1.00;;;15.80;58.70;;;;;;4220361;27;20025;-38
2024/04/24 11:47:03;;;;;;;5.97;0.88;;;15.80;59.00;;;;;;4213916;27;20086;-38
2024/04/24 11:49:51;;;;;;;2.35;1.38;;;15.80;60.20;;;;;;4216394;27;20089;-38
2024/04/24 11:52:43;;;;;;;3.78;1.13;;;15.90;59.80;;;;;;4194172;27;20025;-38
2024/04/24 11:55:26;;;;;;;2.45;0.77;;;15.90;59.40;;;;;;4193870;27;20026;-39
2024/04/24 11:58:14;;;;;;;2.90;0.80;;;15.90;59.70;;;;;;4194224;27;20018;-37
2024/04/24 12:00:56;;;;;;;3.15;0.93;;;15.90;58.80;;;;;;4218091;27;20017;-38
2024/04/24 12:03:39;;;;;;;3.13;1.10;;;16.00;58.10;;;;;;4209971;27;20021;-37
2024/04/24 12:06:22;;;;;;;1.25;0.70;;;16.00;58.00;;;;;;4196489;27;20022;-37
2024/04/24 12:09:10;;;;;;;1.73;0.70;;;16.00;58.10;;;;;;4194558;27;20026;-38
2024/04/24 12:11:53;;;;;;;2.78;0.90;;;16.00;57.10;;;;;;4193745;27;20638;-38
2024/04/24 12:14:37;;;;;;;0.70;0.63;;;16.00;57.20;;;;;;4212307;27;20094;-38
2024/04/24 12:17:20;;;;;;;3.10;0.98;;;16.10;56.90;;;;;;4194220;27;20068;-38
2024/04/24 12:20:03;;;;;;;4.30;0.90;;;16.10;57.10;;;;;;4194382;27;20025;-37
2024/04/24 12:22:47;;;;;;;2.53;1.48;;;16.10;57.20;;;;;;4215287;27;20151;-37
2024/04/24 12:25:33;;;;;;;2.50;0.88;;;16.10;57.90;;;;;;4220172;27;20343;-37
2024/04/24 12:28:16;;;;;;;2.78;1.08;;;16.20;57.80;;;;;;4218050;27;20417;-38
2024/04/24 12:30:59;;;;;;;3.83;0.80;;;16.20;57.80;;;;;;4219667;27;20370;-38
2024/04/24 12:33:43;;;;;;;1.58;1.00;;;16.20;57.00;;;;;;4213749;27;20486;-38
2024/04/24 12:36:26;;;;;;;2.72;0.65;;;16.10;56.60;;;;;;4221507;27;20013;-38
2024/04/24 12:39:10;;;;;;;2.13;0.82;;;16.10;57.10;;;;;;4221512;27;20024;-38
2024/04/24 12:41:55;;;;;;;1.88;0.85;;;16.10;57.30;;;;;;4221889;27;20524;-38
2024/04/24 12:44:39;;;;;;;1.80;0.75;;;16.00;58.20;;;;;;4221654;27;20379;-38
2024/04/24 12:47:21;;;;;;;2.42;0.95;;;16.00;57.90;;;;;;4219916;27;22181;-38
2024/04/24 12:50:04;;;;;;;1.67;0.88;;;16.00;57.50;;;;;;4220475;27;20024;-38
2024/04/24 12:52:47;;;;;;;2.60;0.80;;;15.90;57.00;;;;;;4221070;27;20046;-38
2024/04/24 12:55:31;;;;;;;3.50;0.90;;;15.90;57.80;;;;;;4195291;27;20578;-38
2024/04/24 12:58:16;;;;;;;3.05;0.93;;;15.90;58.20;;;;;;4195136;27;20021;-38
2024/04/24 13:00:59;;;;;;;3.33;1.45;;;15.90;58.10;;;;;;4211621;27;20017;-38
2024/04/24 13:03:42;;;;;;;1.65;0.73;;;15.80;58.50;;;;;;4221180;27;20017;-48
2024/04/24 13:06:25;;;;;;;1.50;0.80;;;15.80;58.40;;;;;;4220216;27;20062;-49
2024/04/24 13:09:08;;;;;;;2.55;1.00;;;15.80;58.10;;;;;;4221100;27;20021;-50
2024/04/24 13:11:51;;;;;;;2.58;0.80;;;15.70;58.90;;;;;;4218986;27;20046;-48
2024/04/24 13:14:36;;;;;;;3.50;0.68;;;15.70;59.50;;;;;;4205338;27;20579;-47
2024/04/24 13:17:20;;;;;;;3.35;0.90;;;15.70;59.80;;;;;;4223501;27;20021;-47
2024/04/24 13:20:03;;;;;;;2.55;0.90;;;15.70;60.20;;;;;;4220618;27;20089;-48
2024/04/24 13:22:47;;;;;;;2.70;0.60;;;15.70;59.70;;;;;;4222710;27;20024;-47
2024/04/24 13:25:29;;;;;;;3.35;0.82;;;15.70;59.30;;;;;;4224638;27;20021;-48
2024/04/24 13:28:12;;;;;;;2.33;0.93;;;15.60;59.10;;;;;;4222642;27;20043;-48
2024/04/24 13:31:00;;;;;;;3.15;0.80;;;15.60;57.80;;;;;;4220862;27;20024;-47
2024/04/24 13:33:44;;;;;;;2.97;1.00;;;15.60;58.50;;;;;;4199168;27;20441;-51
2024/04/24 13:36:28;;;;;;;4.78;0.85;;;15.60;58.10;;;;;;4194931;27;20058;-49
2024/04/24 13:39:10;;;;;;;1.55;0.82;;;15.50;58.30;;;;;;4194787;27;20033;-48
2024/04/24 13:41:54;;;;;;;1.55;0.70;;;15.50;58.70;;;;;;4219646;27;20086;-48
2024/04/24 13:44:36;;;;;;;1.77;0.90;;;15.50;59.20;;;;;;4236425;27;20437;-49
2024/04/24 13:47:22;;;;;;;2.08;0.70;;;15.50;58.80;;;;;;4220352;27;20089;-48
2024/04/24 13:50:09;;;;;;;3.10;1.00;;;15.40;57.90;;;;;;4219339;27;20021;-47
2024/04/24 13:52:53;;;;;;;1.65;0.70;;;15.40;58.30;;;;;;4236918;27;20017;-48
2024/04/24 13:55:36;;;;;;;5.13;0.98;;;15.40;59.00;;;;;;4219785;27;20016;-50
2024/04/24 13:58:19;;;;;;;1.95;0.68;;;15.40;59.50;;;;;;4214955;27;20024;-50
2024/04/24 14:01:03;;;;;;;3.08;1.20;;;15.40;60.30;;;;;;4209564;27;20089;-52
2024/04/24 14:03:49;;;;;;;2.08;1.23;;;15.40;60.20;;;;;;4220468;27;20090;-51
2024/04/24 14:06:32;;;;;;;1.27;0.90;;;15.30;59.80;;;;;;4220425;27;20033;-49
2024/04/24 14:09:15;;;;;;;3.28;0.90;;;15.30;59.40;;;;;;4204268;27;20705;-49
2024/04/24 14:11:58;;;;;;;4.05;1.20;;;15.30;59.30;;;;;;4195482;27;20020;-51
2024/04/24 14:14:40;;;;;;;3.33;1.23;;;15.30;59.50;;;;;;4200811;27;20020;-51
2024/04/24 14:17:23;;;;;;;2.80;1.05;;;15.30;59.00;;;;;;4220550;27;20086;-48